Breeden, West Virginia
Current Conditions -  °F | °C
As of 3:15 PM on Thursday 23 Oct 2014 (Local Time) from KSJS Reporting Station
Overcast Overcast  
Wind Chill: 57°   Ceiling: 3300
Heat Index: 57°   Visibility: 10mi
Dew Point: 42°   Wind: 5mph
Humidity: 58%   Direction: 60°ENE
Pressure: 30.16"   Gusts: NA
Location:  37.93°N, 82.28°W
Report Text: KSJS 231915Z AUTO 06004KT 10SM OVC033 14/06 A3016 RMK AO2 T01390058
Loading
Personal Weather Stations






























Interactive Weather Map
Tropical Storm Tracking
New forecast layout! Learn more

10-Day Weather Forecast

Advertisements
Track Severe Weather on mobile